Detroit, Michigan
Traffic Map
Current Weather Conditions
Detroit, Michigan
Broken Clouds
Broken Clouds
66°
Feels Like: 66°
Wind Chill: 66° Ceiling: 6300
Heat Index: 66° Visibility: 15mi
Dew Point: 55° Wind: 3mph
Humidity: 68% Direction: 90° (E)
Pressure: 30.07in Gusts: 0mph
Raw Report DataCYQG 250100Z 09003KT 15SM BKN063 19/13 A3007 RMK SC5 SLP180
Traffic Incident Summary
Active as of:
Severity:
Category:
InformationThere was an issue retrieving the traffic information for this location. Please try a different location or try again shortly.
Advertisements
Track Severe Weather on mobile